Terminal Aerodrome Forecast
Issued by NWS

Home | Current Version | Previous Version | Text Only | Print | Product List | Glossary On
Versions: 1 2 3 4 5 6 7 8 9 10 11 12 13 14 15 16 17
686
FTUS44 KLZK 261136
TAFPBF
TAF
KPBF 261136Z 2612/2712 VRB05KT P6SM SCT250
     FM261500 21007KT P6SM SCT250
     FM262000 17008KT P6SM FEW050 SCT250
     FM270300 15008G15KT P6SM VCSH SCT050 BKN100 OVC250 PROB30
      2705/2711 5SM -TSRA BKN050CB=

USA.gov is the U.S. government's official web portal to all federal, state and local government web resources and services.